Time;durP1;ratioP1;P1;durP2;ratioP2;P2;SDS_P1;SDS_P2;PMS_P1;PMS_P2;Temp;Humidity;BMP_temperature;BMP_pressure;BME280_temperature;BME280_humidity;BME280_pressure;Samples;Min_cycle;Max_cycle;Signal;HPM_P1;HPM_P2
2021/12/03 00:01:08;;;;;;;21.80;15.30;;;0.80;99.90;;;;;;5065041;28;20236;-81
2021/12/03 00:03:37;;;;;;;23.97;14.60;;;0.80;99.90;;;;;;5034295;28;20221;-80
2021/12/03 00:06:04;;;;;;;24.73;15.20;;;0.80;99.90;;;;;;5047629;28;20213;-81
2021/12/03 00:08:32;;;;;;;24.57;14.83;;;0.80;99.90;;;;;;5073191;28;20293;-81
2021/12/03 00:11:01;;;;;;;29.73;16.30;;;0.80;99.90;;;;;;5069135;28;20204;-82
2021/12/03 00:13:31;;;;;;;26.50;16.73;;;0.80;99.90;;;;;;5068445;28;20297;-83
2021/12/03 00:15:59;;;;;;;29.17;17.33;;;0.80;99.90;;;;;;5068604;28;20220;-81
2021/12/03 00:18:26;;;;;;;26.80;17.80;;;0.80;99.90;;;;;;5064090;28;20231;-82
2021/12/03 00:20:55;;;;;;;23.90;16.37;;;0.80;99.90;;;;;;5084892;28;20243;-82
2021/12/03 00:23:28;;;;;;;29.17;16.30;;;0.80;99.90;;;;;;5068653;28;20294;-82
2021/12/03 00:25:56;;;;;;;26.60;17.90;;;0.80;99.90;;;;;;5068541;28;20203;-82
2021/12/03 00:28:23;;;;;;;32.57;18.47;;;0.80;99.90;;;;;;5067607;28;20201;-82
2021/12/03 00:30:50;;;;;;;29.73;17.40;;;0.80;99.90;;;;;;5067998;28;20265;-83
2021/12/03 00:33:18;;;;;;;27.77;18.43;;;0.80;99.90;;;;;;5080405;28;20304;-83
2021/12/03 00:35:44;;;;;;;27.73;16.80;;;0.80;99.90;;;;;;5068834;28;20203;-81
2021/12/03 00:38:11;;;;;;;28.27;18.17;;;0.80;99.90;;;;;;5050270;28;20776;-82
2021/12/03 00:40:39;;;;;;;26.60;17.67;;;0.80;99.90;;;;;;5068218;28;20336;-82
2021/12/03 00:43:07;;;;;;;24.93;17.17;;;0.80;99.90;;;;;;5071167;28;20215;-82
2021/12/03 00:45:35;;;;;;;28.93;18.03;;;0.80;99.90;;;;;;5092844;28;20226;-81
2021/12/03 00:48:04;;;;;;;30.10;18.87;;;0.80;99.90;;;;;;5095736;28;20245;-81
2021/12/03 00:50:32;;;;;;;28.60;18.23;;;0.80;99.90;;;;;;5095629;28;20204;-81
2021/12/03 00:53:01;;;;;;;29.60;18.97;;;0.80;99.90;;;;;;5081421;28;20210;-83
2021/12/03 00:55:29;;;;;;;29.27;19.17;;;0.80;99.90;;;;;;5092939;28;20636;-82
2021/12/03 00:57:56;;;;;;;28.33;19.73;;;0.80;99.90;;;;;;5074210;28;20269;-81
2021/12/03 01:00:26;;;;;;;31.60;18.53;;;0.80;99.90;;;;;;5074853;28;20219;-82
2021/12/03 01:02:55;;;;;;;32.13;20.60;;;0.80;99.90;;;;;;5092580;28;20222;-82
2021/12/03 01:05:23;;;;;;;32.00;20.60;;;0.80;99.90;;;;;;5092632;28;20317;-82
2021/12/03 01:07:50;;;;;;;31.10;21.40;;;0.80;99.90;;;;;;5075371;28;20192;-82
2021/12/03 01:10:18;;;;;;;33.83;19.10;;;0.80;99.90;;;;;;5092921;28;20237;-82
2021/12/03 01:12:45;;;;;;;41.33;18.93;;;1.00;99.90;;;;;;5092026;28;20302;-81
2021/12/03 01:15:18;;;;;;;33.50;19.80;;;0.90;99.90;;;;;;5074348;28;20291;-82
2021/12/03 01:17:45;;;;;;;33.10;18.60;;;0.90;99.90;;;;;;5094686;28;20235;-82
2021/12/03 01:20:15;;;;;;;35.40;19.90;;;0.90;99.90;;;;;;5100593;28;20202;-82
2021/12/03 01:22:45;;;;;;;30.77;19.73;;;0.90;99.90;;;;;;5097911;28;20278;-82
2021/12/03 01:25:14;;;;;;;32.20;20.10;;;0.90;99.90;;;;;;5073886;28;20307;-80
2021/12/03 01:27:41;;;;;;;34.33;20.80;;;0.90;99.90;;;;;;5091951;28;20709;-81
2021/12/03 01:30:11;;;;;;;30.03;20.60;;;0.90;99.90;;;;;;5093013;28;20252;-82
2021/12/03 01:32:39;;;;;;;32.67;19.87;;;0.90;99.90;;;;;;5075163;28;20215;-82
2021/12/03 01:35:07;;;;;;;36.30;21.17;;;0.90;99.90;;;;;;5074163;28;20257;-82
2021/12/03 01:37:35;;;;;;;30.63;18.83;;;0.90;99.90;;;;;;5074638;28;20303;-80
2021/12/03 01:40:06;;;;;;;25.10;17.67;;;1.00;99.90;;;;;;5107779;28;20712;-80
2021/12/03 01:42:33;;;;;;;31.70;18.53;;;1.00;99.90;;;;;;5092572;28;20300;-81
2021/12/03 01:45:01;;;;;;;33.90;19.67;;;1.00;99.90;;;;;;5070727;28;20240;-81
2021/12/03 01:47:28;;;;;;;40.50;20.03;;;1.00;99.90;;;;;;5091745;28;20208;-82
2021/12/03 01:49:55;;;;;;;35.37;19.83;;;1.00;99.90;;;;;;5073855;28;20213;-80
2021/12/03 01:52:22;;;;;;;33.23;19.67;;;1.00;99.90;;;;;;5092016;28;20307;-81
2021/12/03 01:54:49;;;;;;;35.03;20.23;;;1.00;99.90;;;;;;5091532;28;20216;-81
2021/12/03 01:57:17;;;;;;;37.07;21.20;;;1.10;99.90;;;;;;5094622;28;20227;-81
2021/12/03 01:59:45;;;;;;;40.47;21.63;;;1.10;99.90;;;;;;5081559;28;20204;-79
2021/12/03 02:02:13;;;;;;;36.53;20.23;;;1.10;99.90;;;;;;5085098;28;20220;-81
2021/12/03 02:04:40;;;;;;;35.60;20.83;;;1.20;99.90;;;;;;5075468;28;20199;-81
2021/12/03 02:07:07;;;;;;;36.60;19.60;;;1.20;99.90;;;;;;5091394;28;20310;-81
2021/12/03 02:09:34;;;;;;;29.97;18.73;;;1.30;99.90;;;;;;5073723;28;20250;-82
2021/12/03 02:12:01;;;;;;;36.23;19.40;;;1.30;99.90;;;;;;5091988;28;20210;-83
2021/12/03 02:14:28;;;;;;;30.87;19.07;;;1.30;99.90;;;;;;5077468;28;20287;-81
2021/12/03 02:16:55;;;;;;;39.70;19.30;;;1.30;99.90;;;;;;5091056;28;20231;-79
2021/12/03 02:19:22;;;;;;;31.27;18.47;;;1.30;99.90;;;;;;5091527;28;20234;-80
2021/12/03 02:21:48;;;;;;;34.93;18.83;;;1.40;99.90;;;;;;5091852;28;20195;-82
2021/12/03 02:24:21;;;;;;;39.37;19.90;;;1.40;99.90;;;;;;5094333;28;20277;-80
2021/12/03 02:26:49;;;;;;;31.33;19.33;;;1.40;99.90;;;;;;5090794;28;20199;-82
2021/12/03 02:29:17;;;;;;;38.37;19.47;;;1.50;99.90;;;;;;5091934;28;20311;-81
2021/12/03 02:31:44;;;;;;;32.33;19.47;;;1.40;99.90;;;;;;5074081;28;20263;-80
2021/12/03 02:34:11;;;;;;;43.67;19.27;;;1.50;99.90;;;;;;5093806;28;20624;-81
2021/12/03 02:36:38;;;;;;;38.77;17.90;;;1.50;99.90;;;;;;5080268;28;20749;-80
2021/12/03 02:39:04;;;;;;;36.47;18.70;;;1.50;99.90;;;;;;5079220;28;20310;-80
2021/12/03 02:41:31;;;;;;;33.07;18.23;;;1.50;99.90;;;;;;5097409;28;20610;-80
2021/12/03 02:43:58;;;;;;;37.93;19.10;;;1.50;99.90;;;;;;5083423;28;20203;-80
2021/12/03 02:46:25;;;;;;;39.30;19.17;;;1.50;99.90;;;;;;5098187;28;20226;-81
2021/12/03 02:48:52;;;;;;;42.50;21.03;;;1.50;99.90;;;;;;5113922;28;20218;-79
2021/12/03 02:51:18;;;;;;;35.53;18.97;;;1.50;99.90;;;;;;5098884;28;20214;-81
2021/12/03 02:53:45;;;;;;;37.20;19.73;;;1.50;99.90;;;;;;5096023;28;20707;-80
2021/12/03 02:56:12;;;;;;;37.37;20.73;;;1.50;99.90;;;;;;5100407;28;20192;-81
2021/12/03 02:58:39;;;;;;;35.73;19.40;;;1.50;99.90;;;;;;5113359;28;20333;-80
2021/12/03 03:01:09;;;;;;;40.90;20.90;;;1.50;99.90;;;;;;5112887;28;20200;-79
2021/12/03 03:03:36;;;;;;;40.90;20.73;;;1.50;99.90;;;;;;5113659;28;20216;-80
2021/12/03 03:06:08;;;;;;;35.70;19.87;;;1.50;99.90;;;;;;5116278;28;20309;-80
2021/12/03 03:08:36;;;;;;;36.87;19.57;;;1.50;99.90;;;;;;5113660;28;20200;-79
2021/12/03 03:11:07;;;;;;;35.07;19.00;;;1.50;99.90;;;;;;5114327;28;20200;-81
2021/12/03 03:13:36;;;;;;;39.17;22.10;;;1.50;99.90;;;;;;5105078;28;20263;-80
2021/12/03 03:16:05;;;;;;;36.83;19.43;;;1.50;99.90;;;;;;5115358;28;20199;-81
2021/12/03 03:18:32;;;;;;;40.77;19.87;;;1.50;99.90;;;;;;5093078;28;20239;-78
2021/12/03 03:21:01;;;;;;;39.93;20.97;;;1.50;99.90;;;;;;5091703;28;20743;-81
2021/12/03 03:23:33;;;;;;;38.13;20.37;;;1.50;99.90;;;;;;5090506;28;21010;-80
2021/12/03 03:26:06;;;;;;;35.57;19.60;;;1.50;99.90;;;;;;5090020;28;20604;-80
2021/12/03 03:28:34;;;;;;;37.80;20.17;;;1.50;99.90;;;;;;5072229;28;20714;-80
2021/12/03 03:31:02;;;;;;;39.33;20.10;;;1.50;99.90;;;;;;5072302;28;20303;-80
2021/12/03 03:33:30;;;;;;;42.80;20.97;;;1.50;99.90;;;;;;5089880;28;20261;-81
2021/12/03 03:35:57;;;;;;;40.37;19.93;;;1.50;99.90;;;;;;5111554;27;20208;-81
2021/12/03 03:38:24;;;;;;;39.63;20.97;;;1.50;99.90;;;;;;5089773;28;20234;-80
2021/12/03 03:40:52;;;;;;;36.30;19.43;;;1.50;99.90;;;;;;5089641;28;20204;-79
2021/12/03 03:43:20;;;;;;;39.97;20.03;;;1.50;99.90;;;;;;5089613;28;20295;-80
2021/12/03 03:45:49;;;;;;;41.77;21.03;;;1.50;99.90;;;;;;5089356;28;20311;-80
2021/12/03 03:48:17;;;;;;;44.07;20.80;;;1.50;99.90;;;;;;5089223;28;20312;-81
2021/12/03 03:50:44;;;;;;;43.63;20.10;;;1.50;99.90;;;;;;5092659;28;20200;-81
2021/12/03 03:53:11;;;;;;;40.33;21.10;;;1.50;99.90;;;;;;5090763;28;20218;-80
2021/12/03 03:55:39;;;;;;;41.10;20.43;;;1.50;99.90;;;;;;5115811;28;20197;-79
2021/12/03 03:58:06;;;;;;;37.50;19.17;;;1.50;99.90;;;;;;5072242;28;20227;-79
2021/12/03 04:00:39;;;;;;;40.93;20.27;;;1.50;99.90;;;;;;5089726;28;20227;-80
2021/12/03 04:03:07;;;;;;;39.43;19.67;;;1.50;99.90;;;;;;5089663;28;20219;-80
2021/12/03 04:05:34;;;;;;;42.17;19.47;;;1.50;99.90;;;;;;5090491;28;20235;-79
2021/12/03 04:08:01;;;;;;;36.67;19.63;;;1.50;99.90;;;;;;5089662;28;20928;-80
2021/12/03 04:10:31;;;;;;;35.80;18.00;;;1.50;99.90;;;;;;5089213;28;20226;-80
2021/12/03 04:12:58;;;;;;;35.17;18.73;;;1.50;99.90;;;;;;5089929;28;20208;-81
2021/12/03 04:15:26;;;;;;;36.93;18.47;;;1.50;99.90;;;;;;5089917;28;20211;-81
2021/12/03 04:17:53;;;;;;;41.30;20.63;;;1.50;99.90;;;;;;5075612;28;20207;-81
2021/12/03 04:20:21;;;;;;;43.00;20.30;;;1.50;99.90;;;;;;5089159;28;20204;-79
2021/12/03 04:22:49;;;;;;;41.80;20.63;;;1.50;99.90;;;;;;5088661;28;20200;-80
2021/12/03 04:25:19;;;;;;;41.00;20.27;;;1.50;99.90;;;;;;5089665;28;20230;-80
2021/12/03 04:27:46;;;;;;;35.17;18.33;;;1.50;99.90;;;;;;5089235;28;20758;-80
2021/12/03 04:30:21;;;;;;;42.20;19.23;;;1.50;99.90;;;;;;5089007;28;20624;-80
2021/12/03 04:32:48;;;;;;;42.50;19.37;;;1.50;99.90;;;;;;5076919;28;20214;-81
2021/12/03 04:35:16;;;;;;;43.20;21.13;;;1.50;99.90;;;;;;5091288;28;20298;-80
2021/12/03 04:37:44;;;;;;;36.37;19.37;;;1.50;99.90;;;;;;5070742;28;20234;-80
2021/12/03 04:40:14;;;;;;;46.93;20.77;;;1.50;99.90;;;;;;5088770;28;20265;-80
2021/12/03 04:42:41;;;;;;;47.63;21.03;;;1.50;99.90;;;;;;5089415;28;20307;-79
2021/12/03 04:45:11;;;;;;;40.43;21.30;;;1.50;99.90;;;;;;5092592;28;20231;-79
2021/12/03 04:47:38;;;;;;;40.83;20.10;;;1.50;99.90;;;;;;5100961;28;20426;-79
2021/12/03 04:50:08;;;;;;;42.40;21.70;;;1.50;99.90;;;;;;5096957;28;20204;-78
2021/12/03 04:52:35;;;;;;;46.60;22.00;;;1.50;99.90;;;;;;5089744;28;20748;-78
2021/12/03 04:55:06;;;;;;;50.33;23.53;;;1.50;99.90;;;;;;5089628;28;20295;-80
2021/12/03 04:57:32;;;;;;;47.27;21.87;;;1.40;99.90;;;;;;5091385;28;20202;-80
2021/12/03 05:00:00;;;;;;;51.80;24.33;;;1.40;99.90;;;;;;5089635;28;20641;-79
2021/12/03 05:02:27;;;;;;;48.73;21.73;;;1.40;99.90;;;;;;5098803;28;20261;-80
2021/12/03 05:04:59;;;;;;;44.97;21.83;;;1.40;99.90;;;;;;5073148;28;20208;-80
2021/12/03 05:08:01;;;;;;;51.57;23.13;;;1.40;99.90;;;;;;5090965;28;20234;-79
2021/12/03 05:10:19;;;;;;;53.77;23.83;;;1.40;99.90;;;;;;5082155;28;20231;-79
2021/12/03 05:12:45;;;;;;;56.80;24.83;;;1.40;99.90;;;;;;5105280;28;20261;-81
2021/12/03 05:15:29;;;;;;;53.20;24.50;;;1.40;99.90;;;;;;5083741;28;20207;-81
2021/12/03 05:17:56;;;;;;;61.13;25.97;;;1.50;99.90;;;;;;5089056;28;20278;-80
2021/12/03 05:20:24;;;;;;;60.93;24.30;;;1.50;99.90;;;;;;5089042;28;20239;-79
2021/12/03 05:22:53;;;;;;;62.27;24.83;;;1.60;99.90;;;;;;5088702;28;20907;-81
2021/12/03 05:25:21;;;;;;;57.67;26.03;;;1.50;99.90;;;;;;5103562;28;20243;-81
2021/12/03 05:27:50;;;;;;;60.83;24.97;;;1.50;99.90;;;;;;5089554;28;20246;-79
2021/12/03 05:30:19;;;;;;;61.97;25.33;;;1.50;99.90;;;;;;5093088;28;20200;-79
2021/12/03 05:32:46;;;;;;;67.00;29.17;;;1.60;99.90;;;;;;5114377;28;20238;-80
2021/12/03 05:35:14;;;;;;;62.97;29.67;;;1.60;99.90;;;;;;5104145;28;20299;-79
2021/12/03 05:37:41;;;;;;;69.27;28.83;;;1.60;99.90;;;;;;5091917;28;20247;-79
2021/12/03 05:40:09;;;;;;;66.47;27.93;;;1.60;99.90;;;;;;5093327;28;20317;-80
2021/12/03 05:42:37;;;;;;;65.60;27.40;;;1.70;99.90;;;;;;5094442;28;20287;-78
2021/12/03 05:45:06;;;;;;;64.47;27.90;;;1.70;99.90;;;;;;5065678;28;20331;-79
2021/12/03 05:47:33;;;;;;;74.63;30.93;;;1.70;99.90;;;;;;5092013;28;20314;-79
2021/12/03 05:50:19;;;;;;;70.97;30.13;;;1.70;99.90;;;;;;5076325;27;20718;-79
2021/12/03 05:52:47;;;;;;;69.73;30.20;;;1.80;99.90;;;;;;5085671;28;20210;-79
2021/12/03 05:55:15;;;;;;;76.17;30.20;;;1.80;99.90;;;;;;5067990;28;20576;-79
2021/12/03 05:57:43;;;;;;;69.30;31.43;;;1.80;99.90;;;;;;5065544;28;20200;-79
2021/12/03 06:00:24;;;;;;;69.73;30.60;;;1.80;99.90;;;;;;5078589;28;20204;-78
2021/12/03 06:02:52;;;;;;;73.80;31.43;;;1.90;99.90;;;;;;5097960;28;20251;-79
2021/12/03 06:05:23;;;;;;;67.73;30.93;;;1.90;99.90;;;;;;5093379;28;20230;-80
2021/12/03 06:07:51;;;;;;;79.17;32.73;;;1.90;99.90;;;;;;5089730;28;20302;-79
2021/12/03 06:10:18;;;;;;;78.47;34.07;;;1.90;99.90;;;;;;5096284;28;20339;-79
2021/12/03 06:12:46;;;;;;;84.10;32.90;;;1.90;99.90;;;;;;5099687;28;20866;-78
2021/12/03 06:15:14;;;;;;;76.80;31.43;;;2.00;99.90;;;;;;5087828;28;20191;-79
2021/12/03 06:17:41;;;;;;;85.70;34.07;;;2.00;99.90;;;;;;5107062;28;20332;-78
2021/12/03 06:20:09;;;;;;;79.93;32.97;;;2.00;99.90;;;;;;5105906;28;20269;-80
2021/12/03 06:22:36;;;;;;;84.63;33.47;;;2.10;99.90;;;;;;5106081;28;20204;-79
2021/12/03 06:25:08;;;;;;;73.17;32.90;;;2.10;99.90;;;;;;5096441;28;20239;-79
2021/12/03 06:27:36;;;;;;;87.33;35.10;;;2.20;99.90;;;;;;5073557;28;20291;-80
2021/12/03 06:30:07;;;;;;;84.67;34.67;;;2.20;99.90;;;;;;5100551;28;20268;-79
2021/12/03 06:32:34;;;;;;;93.63;34.67;;;2.20;99.90;;;;;;5086151;28;20209;-79
2021/12/03 06:35:01;;;;;;;93.87;35.70;;;2.20;99.90;;;;;;5088585;28;20724;-79
2021/12/03 06:37:27;;;;;;;93.67;35.43;;;2.20;99.90;;;;;;5074553;28;20204;-79
2021/12/03 06:39:55;;;;;;;103.97;35.90;;;2.20;99.90;;;;;;5092360;28;20592;-79
2021/12/03 06:42:22;;;;;;;91.20;37.30;;;2.20;99.90;;;;;;5098768;28;20250;-79
2021/12/03 06:44:49;;;;;;;98.87;37.03;;;2.30;99.90;;;;;;5106368;28;20661;-78
2021/12/03 06:47:16;;;;;;;93.57;35.90;;;2.30;99.90;;;;;;5082386;28;20592;-78
2021/12/03 06:49:43;;;;;;;105.00;37.77;;;2.30;99.90;;;;;;5086701;28;20267;-77
2021/12/03 06:52:14;;;;;;;103.27;34.57;;;2.30;99.90;;;;;;5079867;28;20321;-78
2021/12/03 06:54:42;;;;;;;104.13;36.23;;;2.30;99.90;;;;;;5070583;28;20213;-77
2021/12/03 06:57:10;;;;;;;92.83;36.97;;;2.30;99.90;;;;;;5063180;28;20227;-79
2021/12/03 06:59:37;;;;;;;99.47;38.10;;;2.30;99.90;;;;;;5086779;28;20290;-79
2021/12/03 07:02:05;;;;;;;96.10;36.97;;;2.30;99.90;;;;;;5050718;28;20208;-78
2021/12/03 07:04:32;;;;;;;91.40;36.73;;;2.40;99.90;;;;;;5068128;28;20674;-78
2021/12/03 07:06:59;;;;;;;95.73;38.00;;;2.40;99.90;;;;;;5072620;28;20624;-79
2021/12/03 07:09:25;;;;;;;101.73;36.07;;;2.40;99.90;;;;;;5076501;28;20232;-78
2021/12/03 07:11:53;;;;;;;99.27;38.13;;;2.40;99.90;;;;;;5079157;28;20533;-79
2021/12/03 07:14:20;;;;;;;88.03;34.87;;;2.40;99.90;;;;;;5074776;28;20237;-79
2021/12/03 07:16:47;;;;;;;94.57;37.80;;;2.40;99.90;;;;;;5081586;28;20697;-77
2021/12/03 07:19:14;;;;;;;88.60;33.60;;;2.30;99.90;;;;;;5071614;28;20743;-79
2021/12/03 07:21:41;;;;;;;89.77;34.47;;;2.40;99.90;;;;;;5074522;28;20674;-79
2021/12/03 07:24:08;;;;;;;94.53;37.77;;;2.40;99.90;;;;;;5055603;28;20296;-78
2021/12/03 07:26:35;;;;;;;96.77;38.00;;;2.40;99.90;;;;;;5090697;28;20212;-78
2021/12/03 07:29:02;;;;;;;88.13;36.23;;;2.40;99.90;;;;;;5078308;28;20221;-78
2021/12/03 07:31:32;;;;;;;104.07;36.17;;;2.40;99.90;;;;;;5071854;28;20237;-78
2021/12/03 07:33:59;;;;;;;90.93;36.87;;;2.50;99.90;;;;;;5069274;28;20795;-78
2021/12/03 07:36:26;;;;;;;101.23;37.57;;;2.50;99.90;;;;;;5079033;28;20329;-78
2021/12/03 07:38:53;;;;;;;97.37;38.23;;;2.40;99.90;;;;;;5081836;28;20219;-77
2021/12/03 07:41:21;;;;;;;106.23;38.17;;;2.50;99.90;;;;;;5084653;28;20277;-78
2021/12/03 07:43:48;;;;;;;97.73;36.97;;;2.50;99.90;;;;;;5064876;28;20202;-80
2021/12/03 07:46:15;;;;;;;95.20;35.17;;;2.50;99.90;;;;;;5070946;28;20308;-79
2021/12/03 07:48:46;;;;;;;84.57;35.27;;;2.50;99.90;;;;;;5052314;28;20233;-76
2021/12/03 07:51:17;;;;;;;94.87;34.33;;;2.50;99.90;;;;;;5043009;28;20294;-76
2021/12/03 07:53:44;;;;;;;92.30;34.63;;;2.50;99.90;;;;;;5077477;28;20201;-75
2021/12/03 07:56:11;;;;;;;83.47;34.33;;;2.60;99.90;;;;;;5086958;28;20213;-75
2021/12/03 07:58:38;;;;;;;70.70;31.27;;;2.60;99.90;;;;;;5072331;28;20556;-75
2021/12/03 08:01:05;;;;;;;83.00;30.63;;;2.60;99.90;;;;;;5069887;28;20249;-75
2021/12/03 08:03:32;;;;;;;82.27;28.83;;;2.70;99.90;;;;;;5051650;28;20229;-76
2021/12/03 08:06:04;;;;;;;65.63;26.80;;;2.70;99.90;;;;;;5070678;28;20205;-77
2021/12/03 08:08:32;;;;;;;74.23;26.80;;;2.70;99.90;;;;;;5053319;28;20248;-76
2021/12/03 08:10:59;;;;;;;66.03;27.27;;;2.70;99.90;;;;;;5069901;28;20213;-76
2021/12/03 08:13:25;;;;;;;63.83;24.07;;;2.70;99.90;;;;;;5048636;28;20308;-77
2021/12/03 08:15:52;;;;;;;58.77;23.97;;;2.70;99.90;;;;;;5054350;28;20255;-76
2021/12/03 08:18:20;;;;;;;64.53;22.43;;;2.70;99.90;;;;;;5052933;28;20235;-77
2021/12/03 08:20:49;;;;;;;54.10;21.00;;;2.80;99.90;;;;;;5055759;28;21110;-75
2021/12/03 08:23:17;;;;;;;52.23;19.73;;;2.80;99.90;;;;;;5060479;28;20296;-76
2021/12/03 08:25:45;;;;;;;51.43;19.57;;;2.80;99.90;;;;;;5055438;28;20211;-77
2021/12/03 08:28:14;;;;;;;44.23;17.87;;;2.80;99.90;;;;;;5053485;28;20205;-78
2021/12/03 08:30:44;;;;;;;41.07;17.50;;;2.80;99.90;;;;;;5052531;28;20754;-76
2021/12/03 08:33:16;;;;;;;46.03;17.40;;;2.80;99.90;;;;;;5054016;28;20269;-75
2021/12/03 08:35:43;;;;;;;34.67;15.27;;;2.90;99.90;;;;;;5070800;28;20769;-77
2021/12/03 08:38:12;;;;;;;32.77;14.10;;;2.90;99.90;;;;;;5073643;28;20210;-78
2021/12/03 08:40:58;;;;;;;37.40;14.73;;;2.90;99.90;;;;;;5053803;28;20684;-76
2021/12/03 08:43:25;;;;;;;35.07;13.70;;;2.90;99.90;;;;;;5071095;28;20942;-76
2021/12/03 08:45:54;;;;;;;27.20;13.10;;;2.90;99.90;;;;;;5066593;28;20288;-76
2021/12/03 08:48:26;;;;;;;30.70;13.03;;;3.00;99.90;;;;;;5055962;28;20222;-76
2021/12/03 08:56:20;;;;;;;36.60;10.73;;;3.10;99.90;;;;;;5063996;28;20961;-76
2021/12/03 08:58:50;;;;;;;28.27;10.50;;;3.00;99.90;;;;;;5065433;28;20229;-77
2021/12/03 09:01:19;;;;;;;20.77;9.23;;;3.10;99.90;;;;;;5068919;28;20256;-77
2021/12/03 09:03:50;;;;;;;27.30;9.93;;;3.10;99.90;;;;;;5075783;28;20240;-78
2021/12/03 09:06:21;;;;;;;27.70;9.50;;;3.10;99.90;;;;;;5077742;28;20234;-78
2021/12/03 09:08:47;;;;;;;28.00;9.57;;;3.10;99.90;;;;;;5075857;28;20607;-77
2021/12/03 09:11:16;;;;;;;23.17;9.50;;;3.10;99.90;;;;;;5071429;28;20294;-76
2021/12/03 09:13:44;;;;;;;30.73;9.87;;;3.10;99.90;;;;;;5082167;28;20220;-77
2021/12/03 09:16:16;;;;;;;27.90;10.03;;;3.10;99.90;;;;;;5087960;28;20263;-77
2021/12/03 09:18:45;;;;;;;32.40;9.83;;;3.10;99.90;;;;;;5058422;28;20317;-76
2021/12/03 09:26:33;;;;;;;24.10;8.17;;;3.20;99.90;;;;;;5070802;28;20315;-77
2021/12/03 09:29:07;;;;;;;26.10;8.33;;;3.30;99.90;;;;;;5079375;28;20230;-77
2021/12/03 09:31:36;;;;;;;22.57;7.97;;;3.30;99.90;;;;;;5083427;28;20218;-76
2021/12/03 09:34:09;;;;;;;27.03;8.07;;;3.30;99.90;;;;;;5083146;28;20226;-77
2021/12/03 09:36:41;;;;;;;22.57;7.20;;;3.30;99.90;;;;;;5063626;28;20278;-79
2021/12/03 09:39:10;;;;;;;23.90;8.53;;;3.30;99.90;;;;;;5066595;28;20203;-78
2021/12/03 09:41:37;;;;;;;23.50;7.73;;;3.40;99.90;;;;;;5035385;28;20942;-77
2021/12/03 09:44:04;;;;;;;21.07;7.17;;;3.30;99.90;;;;;;5035659;28;20233;-78
2021/12/03 09:46:31;;;;;;;24.33;7.70;;;3.30;99.90;;;;;;5074917;28;20221;-78
2021/12/03 09:51:38;;;;;;;18.87;6.70;;;3.40;99.90;;;;;;5080872;28;20265;-77
2021/12/03 09:54:27;;;;;;;20.87;7.23;;;3.40;99.90;;;;;;5073272;28;20209;-77
2021/12/03 09:57:02;;;;;;;18.17;7.03;;;3.50;99.90;;;;;;5075635;28;20240;-76
2021/12/03 10:00:05;;;;;;;17.27;6.67;;;3.50;99.90;;;;;;5053615;28;20734;-77
2021/12/03 10:19:25;;;;;;;19.20;6.07;;;3.60;99.90;;;;;;5075382;28;20296;-78
2021/12/03 10:22:28;;;;;;;16.80;5.90;;;3.80;99.90;;;;;;5069164;28;20207;-78
2021/12/03 10:30:36;;;;;;;14.17;5.17;;;3.80;99.90;;;;;;5070019;28;20299;-80
2021/12/03 10:33:41;;;;;;;14.07;5.00;;;3.80;99.90;;;;;;5068986;28;20215;-79
2021/12/03 10:38:58;;;;;;;15.07;5.30;;;3.90;99.90;;;;;;5076559;28;20587;-79
2021/12/03 10:41:48;;;;;;;15.60;5.30;;;3.90;99.90;;;;;;5050126;28;20261;-79
2021/12/03 10:50:32;;;;;;;13.07;4.90;;;3.90;99.90;;;;;;5063355;28;20237;-79
2021/12/03 10:58:32;;;;;;;10.23;4.40;;;3.90;99.90;;;;;;5063451;28;20259;-81
2021/12/03 11:33:34;;;;;;;15.57;5.63;;;3.90;99.90;;;;;;5072511;28;20278;-78
2021/12/03 11:43:12;;;;;;;16.43;6.73;;;3.90;99.90;;;;;;5086555;28;20197;-78
2021/12/03 12:58:29;;;;;;;13.33;4.83;;;4.80;99.90;;;;;;5085969;28;20339;-77
2021/12/03 13:04:35;;;;;;;15.07;4.83;;;4.90;99.90;;;;;;5073619;28;20219;-77
2021/12/03 13:09:43;;;;;;;10.77;4.73;;;4.90;99.90;;;;;;5067911;28;20751;-77
2021/12/03 14:23:49;;;;;;;7.83;5.47;;;4.70;99.90;;;;;;5062266;28;20204;-78
2021/12/03 14:57:41;;;;;;;12.87;6.93;;;4.50;99.90;;;;;;5046607;28;20665;-80
2021/12/03 15:00:20;;;;;;;10.23;6.23;;;4.40;99.90;;;;;;5054456;28;20211;-77
2021/12/03 15:03:05;;;;;;;12.23;6.57;;;4.40;99.90;;;;;;5046174;28;20304;-78
2021/12/03 15:08:45;;;;;;;11.20;6.37;;;4.40;99.90;;;;;;5060058;28;20331;-78
2021/12/03 15:14:43;;;;;;;8.73;6.00;;;4.30;99.90;;;;;;5051866;28;20376;-77
2021/12/03 15:22:20;;;;;;;10.67;6.53;;;4.30;99.90;;;;;;5048590;28;20200;-79
2021/12/03 15:35:09;;;;;;;10.53;7.07;;;4.30;99.90;;;;;;5041622;28;20302;-78
2021/12/03 15:38:23;;;;;;;11.30;7.10;;;4.30;99.90;;;;;;5036397;28;20213;-76
2021/12/03 15:41:08;;;;;;;9.93;6.63;;;4.40;99.90;;;;;;5048676;28;20297;-78
2021/12/03 15:57:14;;;;;;;11.53;8.13;;;4.30;99.90;;;;;;5050261;28;20213;-78
2021/12/03 16:05:45;;;;;;;9.40;7.63;;;4.30;99.90;;;;;;5032293;28;20203;-79
2021/12/03 16:51:28;;;;;;;15.23;9.37;;;4.50;99.90;;;;;;5076513;28;20710;-78
2021/12/03 16:54:05;;;;;;;15.27;9.93;;;4.50;99.90;;;;;;5054669;28;20268;-78
2021/12/03 16:56:34;;;;;;;16.40;9.83;;;4.60;99.90;;;;;;5074665;28;20204;-79
2021/12/03 16:59:03;;;;;;;13.43;9.50;;;4.60;99.90;;;;;;5057099;28;20619;-80
2021/12/03 17:12:09;;;;;;;14.83;10.90;;;4.60;99.90;;;;;;5073730;28;20227;-78
2021/12/03 17:47:09;;;;;;;17.60;11.53;;;4.70;99.90;;;;;;5071411;28;20203;-79
2021/12/03 17:49:37;;;;;;;16.10;11.37;;;4.70;99.90;;;;;;5061388;28;20222;-80
2021/12/03 18:00:19;;;;;;;19.50;13.13;;;4.80;99.90;;;;;;5048841;28;20197;-80
2021/12/03 18:02:49;;;;;;;22.47;13.30;;;4.80;99.90;;;;;;5061461;28;20222;-79
2021/12/03 18:43:41;;;;;;;21.13;14.03;;;4.90;99.90;;;;;;5086348;28;20347;-81
2021/12/03 18:56:42;;;;;;;25.63;14.30;;;4.90;99.90;;;;;;5063037;28;20317;-79
2021/12/03 18:59:11;;;;;;;21.50;13.77;;;4.90;99.90;;;;;;5085936;28;20818;-78
2021/12/03 19:01:42;;;;;;;22.57;14.30;;;4.90;99.90;;;;;;5063067;28;20202;-78
2021/12/03 19:04:16;;;;;;;20.97;13.87;;;4.90;99.90;;;;;;5045087;28;20224;-80
2021/12/03 19:06:50;;;;;;;25.40;16.98;;;4.90;99.90;;;;;;5050662;28;20924;-78
2021/12/03 19:09:32;;;;;;;23.27;14.90;;;4.90;99.90;;;;;;5070432;28;20593;-79
2021/12/03 19:14:35;;;;;;;19.67;13.13;;;4.90;99.90;;;;;;5081129;28;20203;-79
2021/12/03 19:17:08;;;;;;;19.73;12.97;;;4.90;99.90;;;;;;5054183;28;20278;-79
2021/12/03 19:19:41;;;;;;;19.97;13.07;;;4.90;99.90;;;;;;5052987;28;20240;-78
2021/12/03 19:22:09;;;;;;;21.53;13.87;;;4.90;99.90;;;;;;5075274;28;20215;-77
2021/12/03 19:24:36;;;;;;;30.00;17.60;;;4.90;99.90;;;;;;5065860;28;20197;-79
2021/12/03 19:27:08;;;;;;;35.70;20.00;;;4.90;99.90;;;;;;5068704;28;20262;-79
2021/12/03 19:29:37;;;;;;;23.33;14.93;;;4.90;99.90;;;;;;5053424;28;20298;-79
2021/12/03 19:32:05;;;;;;;20.57;13.83;;;4.80;99.90;;;;;;5061758;28;20668;-78
2021/12/03 19:34:33;;;;;;;20.77;13.47;;;4.90;99.90;;;;;;5075788;28;20192;-79
2021/12/03 19:37:01;;;;;;;24.90;14.93;;;4.90;99.90;;;;;;5061085;28;20212;-79
2021/12/03 19:39:28;;;;;;;21.83;13.80;;;4.80;99.90;;;;;;5081324;28;20203;-78
2021/12/03 19:42:05;;;;;;;23.50;14.20;;;4.80;99.90;;;;;;5080955;28;20215;-80
2021/12/03 19:44:40;;;;;;;19.67;12.83;;;4.80;99.90;;;;;;5051408;28;20293;-79
2021/12/03 19:47:09;;;;;;;22.73;13.80;;;4.80;99.90;;;;;;5075797;28;20278;-80
2021/12/03 19:52:30;;;;;;;22.83;13.40;;;4.80;99.90;;;;;;5090865;28;20224;-78
2021/12/03 19:54:57;;;;;;;23.27;13.83;;;4.80;99.90;;;;;;5076800;28;20257;-79
2021/12/03 19:57:25;;;;;;;23.57;15.07;;;4.90;99.90;;;;;;5076504;28;20204;-78
2021/12/03 19:59:52;;;;;;;24.33;14.67;;;4.80;99.90;;;;;;5072609;28;20299;-81
2021/12/03 20:02:19;;;;;;;23.37;14.07;;;4.80;99.90;;;;;;5075127;28;20212;-79
2021/12/03 20:04:46;;;;;;;24.87;13.20;;;4.70;99.90;;;;;;5072376;28;20230;-79
2021/12/03 20:07:14;;;;;;;23.70;14.33;;;4.80;99.90;;;;;;5078551;28;20207;-78
2021/12/03 20:09:57;;;;;;;26.23;15.40;;;4.80;99.90;;;;;;5076220;28;20299;-80
2021/12/03 20:12:25;;;;;;;29.30;16.30;;;4.80;99.90;;;;;;5078883;28;20220;-80
2021/12/03 20:14:55;;;;;;;24.00;12.80;;;4.80;99.90;;;;;;5080098;28;20214;-80
2021/12/03 20:17:28;;;;;;;24.80;13.87;;;4.80;99.90;;;;;;5079274;28;20623;-78
2021/12/03 20:19:59;;;;;;;21.27;13.13;;;4.80;99.90;;;;;;5081197;28;20295;-79
2021/12/03 20:22:44;;;;;;;23.50;13.27;;;4.90;99.90;;;;;;5082958;28;20193;-79
2021/12/03 20:28:04;;;;;;;21.27;12.40;;;4.90;99.90;;;;;;5080514;28;20197;-80
2021/12/03 20:38:37;;;;;;;19.17;11.87;;;4.90;99.90;;;;;;5063795;28;20234;-80
2021/12/03 20:41:10;;;;;;;17.43;10.70;;;4.90;99.90;;;;;;5052563;28;20315;-81
2021/12/03 20:43:46;;;;;;;19.83;11.67;;;4.90;99.90;;;;;;5069944;28;20230;-79